Time,TemperatureF,DewpointF,PressureIn,WindDirection,WindDirectionDegrees,WindSpeedMPH,WindSpeedGustMPH,Humidity,HourlyPrecipIn,Conditions,Clouds,dailyrainin,SoftwareType,DateUTC
2013-02-10 00:01:00,9.0,3.0,30.16,NNW,328,4.0,-999.0,77,-99.99,,,-99.99,,2013-02-10 05:01:00,
2013-02-10 00:11:00,9.0,3.0,30.16,NNW,328,4.0,-999.0,77,-99.99,,,-99.99,,2013-02-10 05:11:00,
2013-02-10 00:22:00,9.0,3.0,30.16,NNW,328,4.0,-999.0,77,-99.99,,,-99.99,,2013-02-10 05:22:00,
2013-02-10 00:32:00,8.0,3.0,30.15,NNW,343,4.0,-999.0,78,-99.99,,,-99.99,,2013-02-10 05:32:00,
2013-02-10 00:41:00,8.0,3.0,30.15,NNW,343,4.0,-999.0,78,-99.99,,,-99.99,,2013-02-10 05:41:00,
2013-02-10 00:52:00,8.0,3.0,30.15,NW,312,1.0,-999.0,78,-99.99,,,-99.99,,2013-02-10 05:52:00,
2013-02-10 01:02:00,8.0,3.0,30.16,WNW,289,3.0,-999.0,78,-99.99,,,-99.99,,2013-02-10 06:02:00,
2013-02-10 01:11:00,8.0,3.0,30.16,WNW,289,3.0,-999.0,78,-99.99,,,-99.99,,2013-02-10 06:11:00,
2013-02-10 01:21:00,8.0,3.0,30.16,WNW,301,1.0,-999.0,78,-99.99,,,-99.99,,2013-02-10 06:21:00,
2013-02-10 01:32:00,8.0,2.0,30.16,NW,318,5.0,-999.0,77,-99.99,,,-99.99,,2013-02-10 06:32:00,
2013-02-10 01:42:00,8.0,2.0,30.16,NW,318,5.0,-999.0,77,-99.99,,,-99.99,,2013-02-10 06:42:00,
2013-02-10 01:52:00,8.0,2.0,30.16,NW,318,5.0,-999.0,77,-99.99,,,-99.99,,2013-02-10 06:52:00,
2013-02-10 02:01:00,7.0,1.0,30.16,NNW,343,6.0,-999.0,76,-99.99,,,-99.99,,2013-02-10 07:01:00,
2013-02-10 02:11:00,7.0,1.0,30.16,NNW,343,6.0,-999.0,76,-99.99,,,-99.99,,2013-02-10 07:11:00,
2013-02-10 02:21:00,7.0,1.0,30.16,NNW,343,6.0,-999.0,76,-99.99,,,-99.99,,2013-02-10 07:21:00,
2013-02-10 02:32:00,7.0,2.0,30.18,North,350,5.0,-999.0,78,-99.99,,,-99.99,,2013-02-10 07:32:00,
2013-02-10 02:42:00,7.0,2.0,30.18,North,350,5.0,-999.0,78,-99.99,,,-99.99,,2013-02-10 07:42:00,
2013-02-10 02:52:00,7.0,2.0,30.18,North,350,5.0,-999.0,78,-99.99,,,-99.99,,2013-02-10 07:52:00,
2013-02-10 03:01:00,6.0,0.0,30.17,North,360,6.0,-999.0,77,-99.99,,,-99.99,,2013-02-10 08:01:00,
2013-02-10 03:11:00,6.0,0.0,30.17,North,360,6.0,-999.0,77,-99.99,,,-99.99,,2013-02-10 08:11:00,
2013-02-10 03:21:00,7.0,1.0,30.18,North,360,8.0,-999.0,76,-99.99,,,-99.99,,2013-02-10 08:21:00,
2013-02-10 03:32:00,7.0,1.0,30.18,North,357,7.0,-999.0,76,-99.99,,,-99.99,,2013-02-10 08:32:00,
2013-02-10 03:43:00,7.0,1.0,30.18,North,357,7.0,-999.0,76,-99.99,,,-99.99,,2013-02-10 08:43:00,
2013-02-10 03:52:00,7.0,1.0,30.18,North,357,7.0,-999.0,76,-99.99,,,-99.99,,2013-02-10 08:52:00,
2013-02-10 04:02:00,6.0,0.0,30.19,North,356,7.0,-999.0,77,-99.99,,,-99.99,,2013-02-10 09:02:00,
2013-02-10 04:11:00,6.0,0.0,30.19,North,356,7.0,-999.0,77,-99.99,,,-99.99,,2013-02-10 09:11:00,
2013-02-10 04:21:00,6.0,0.0,30.19,North,360,7.0,-999.0,77,-99.99,,,-99.99,,2013-02-10 09:21:00,
2013-02-10 04:32:00,6.0,0.0,30.20,NNW,335,7.0,-999.0,77,-99.99,,,-99.99,,2013-02-10 09:32:00,
2013-02-10 04:42:00,6.0,0.0,30.20,NNW,335,7.0,-999.0,77,-99.99,,,-99.99,,2013-02-10 09:42:00,
2013-02-10 04:52:00,5.0,-1.0,30.18,NNW,343,6.0,-999.0,77,-99.99,,,-99.99,,2013-02-10 09:52:00,
2013-02-10 05:01:00,5.0,0.0,30.19,NW,312,5.0,-999.0,78,-99.99,,,-99.99,,2013-02-10 10:01:00,
2013-02-10 05:11:00,5.0,0.0,30.20,NNW,332,4.0,-999.0,79,-99.99,,,-99.99,,2013-02-10 10:11:00,
2013-02-10 05:21:00,5.0,0.0,30.20,NNW,332,4.0,-999.0,79,-99.99,,,-99.99,,2013-02-10 10:21:00,
2013-02-10 05:31:00,5.0,0.0,30.20,NW,311,5.0,-999.0,78,-99.99,,,-99.99,,2013-02-10 10:31:00,
2013-02-10 05:42:00,5.0,0.0,30.20,NW,311,5.0,-999.0,78,-99.99,,,-99.99,,2013-02-10 10:42:00,
2013-02-10 05:52:00,5.0,0.0,30.20,NW,311,5.0,-999.0,78,-99.99,,,-99.99,,2013-02-10 10:52:00,
2013-02-10 06:01:00,5.0,0.0,30.20,NW,311,5.0,-999.0,78,-99.99,,,-99.99,,2013-02-10 11:01:00,
2013-02-10 06:11:00,5.0,0.0,30.20,NW,311,5.0,-999.0,78,-99.99,,,-99.99,,2013-02-10 11:11:00,
2013-02-10 06:22:00,4.0,-1.0,30.22,NW,312,5.0,-999.0,79,-99.99,,,-99.99,,2013-02-10 11:22:00,
2013-02-10 06:32:00,4.0,-1.0,30.22,NW,312,0.0,-999.0,79,-99.99,,,-99.99,,2013-02-10 11:32:00,
2013-02-10 06:42:00,4.0,-1.0,30.22,NW,312,0.0,-999.0,79,-99.99,,,-99.99,,2013-02-10 11:42:00,
2013-02-10 06:52:00,4.0,-1.0,30.24,NW,305,4.0,-999.0,80,-99.99,,,-99.99,,2013-02-10 11:52:00,
2013-02-10 07:02:00,3.0,-2.0,30.24,NW,312,3.0,-999.0,80,-99.99,,,-99.99,,2013-02-10 12:02:00,
2013-02-10 07:12:00,3.0,-2.0,30.24,NW,312,3.0,-999.0,80,-99.99,,,-99.99,,2013-02-10 12:12:00,
2013-02-10 07:21:00,3.0,-1.0,30.25,NW,312,0.0,-999.0,81,-99.99,,,-99.99,,2013-02-10 12:21:00,
2013-02-10 07:32:00,3.0,-1.0,30.26,NW,312,0.0,-999.0,81,-99.99,,,-99.99,,2013-02-10 12:32:00,
2013-02-10 07:42:00,3.0,-1.0,30.26,NW,312,0.0,-999.0,81,-99.99,,,-99.99,,2013-02-10 12:42:00,
2013-02-10 07:52:00,3.0,-1.0,30.26,NW,312,0.0,-999.0,81,-99.99,,,-99.99,,2013-02-10 12:52:00,
2013-02-10 08:02:00,2.0,-2.0,30.28,NW,312,0.0,-999.0,81,-99.99,,,-99.99,,2013-02-10 13:02:00,
2013-02-10 08:11:00,2.0,-2.0,30.28,NW,312,0.0,-999.0,81,-99.99,,,-99.99,,2013-02-10 13:11:00,
2013-02-10 08:21:00,2.0,-2.0,30.29,NW,312,0.0,-999.0,81,-99.99,,,-99.99,,2013-02-10 13:21:00,
2013-02-10 08:31:00,2.0,-2.0,30.29,NW,312,0.0,-999.0,81,-99.99,,,-99.99,,2013-02-10 13:31:00,
2013-02-10 08:41:00,2.0,-2.0,30.29,NW,312,0.0,-999.0,81,-99.99,,,-99.99,,2013-02-10 13:41:00,
2013-02-10 08:52:00,3.0,-2.0,30.31,NW,326,2.0,-999.0,80,-99.99,,,-99.99,,2013-02-10 13:52:00,
2013-02-10 09:02:00,3.0,-2.0,30.31,NW,326,2.0,-999.0,80,-99.99,,,-99.99,,2013-02-10 14:02:00,
2013-02-10 09:11:00,3.0,-2.0,30.31,NW,326,2.0,-999.0,80,-99.99,,,-99.99,,2013-02-10 14:11:00,
2013-02-10 09:21:00,3.0,-2.0,30.31,NW,326,2.0,-999.0,80,-99.99,,,-99.99,,2013-02-10 14:21:00,
2013-02-10 09:32:00,5.0,-1.0,30.31,NW,309,5.0,-999.0,77,-99.99,,,-99.99,,2013-02-10 14:32:00,
2013-02-10 09:42:00,5.0,-1.0,30.31,NW,309,5.0,-999.0,77,-99.99,,,-99.99,,2013-02-10 14:42:00,
2013-02-10 09:52:00,7.0,1.0,30.31,NW,312,5.0,-999.0,76,-99.99,,,-99.99,,2013-02-10 14:52:00,
2013-02-10 10:02:00,9.0,3.0,30.31,NW,315,4.0,-999.0,76,-99.99,,,-99.99,,2013-02-10 15:02:00,
2013-02-10 10:11:00,9.0,3.0,30.31,NW,315,4.0,-999.0,76,-99.99,,,-99.99,,2013-02-10 15:11:00,
2013-02-10 10:22:00,11.0,5.0,30.33,NW,326,0.0,-999.0,75,-99.99,,,-99.99,,2013-02-10 15:22:00,
2013-02-10 10:32:00,11.0,5.0,30.33,NW,326,0.0,-999.0,75,-99.99,,,-99.99,,2013-02-10 15:32:00,
2013-02-10 10:42:00,11.0,5.0,30.33,NW,326,0.0,-999.0,75,-99.99,,,-99.99,,2013-02-10 15:42:00,
2013-02-10 10:52:00,15.0,8.0,30.33,NW,313,1.0,-999.0,72,-99.99,,,-99.99,,2013-02-10 15:52:00,
2013-02-10 11:02:00,16.0,9.0,30.33,North,4,4.0,-999.0,73,-99.99,,,-99.99,,2013-02-10 16:02:00,
2013-02-10 11:12:00,17.0,9.0,30.33,North,349,2.0,-999.0,70,-99.99,,,-99.99,,2013-02-10 16:12:00,
2013-02-10 11:22:00,17.0,9.0,30.33,North,349,2.0,-999.0,70,-99.99,,,-99.99,,2013-02-10 16:22:00,
2013-02-10 11:32:00,18.0,10.0,30.33,NW,304,4.0,-999.0,69,-99.99,,,-99.99,,2013-02-10 16:32:00,
2013-02-10 11:42:00,20.0,11.0,30.33,NW,304,4.0,-999.0,69,-99.99,,,-99.99,,2013-02-10 16:42:00,
2013-02-10 11:52:00,20.0,11.0,30.33,NW,304,4.0,-999.0,69,-99.99,,,-99.99,,2013-02-10 16:52:00,
2013-02-10 12:02:00,20.0,11.0,30.33,NW,304,4.0,-999.0,69,-99.99,,,-99.99,,2013-02-10 17:02:00,
2013-02-10 12:11:00,20.0,11.0,30.33,NW,304,4.0,-999.0,69,-99.99,,,-99.99,,2013-02-10 17:11:00,
2013-02-10 12:22:00,20.0,11.0,30.33,NW,304,4.0,-999.0,69,-99.99,,,-99.99,,2013-02-10 17:22:00,
2013-02-10 12:32:00,20.0,11.0,30.33,NW,304,4.0,-999.0,69,-99.99,,,-99.99,,2013-02-10 17:32:00,
2013-02-10 13:12:00,25.0,14.0,30.28,NNW,329,4.0,-999.0,62,-99.99,,,-99.99,,2013-02-10 18:12:00,
2013-02-10 13:22:00,25.0,14.0,30.28,NNW,329,4.0,-999.0,62,-99.99,,,-99.99,,2013-02-10 18:22:00,
2013-02-10 13:32:00,25.0,14.0,30.28,NNW,329,4.0,-999.0,62,-99.99,,,-99.99,,2013-02-10 18:32:00,
2013-02-10 13:42:00,25.0,14.0,30.28,NNW,329,4.0,-999.0,62,-99.99,,,-99.99,,2013-02-10 18:42:00,
2013-02-10 13:52:00,25.0,13.0,30.26,North,356,6.0,-999.0,61,-99.99,,,-99.99,,2013-02-10 18:52:00,
2013-02-10 14:02:00,26.0,14.0,30.26,WNW,295,3.0,-999.0,60,-99.99,,,-99.99,,2013-02-10 19:02:00,
2013-02-10 14:12:00,26.0,14.0,30.26,WNW,295,3.0,-999.0,60,-99.99,,,-99.99,,2013-02-10 19:12:00,
2013-02-10 14:22:00,26.0,14.0,30.26,WNW,295,3.0,-999.0,60,-99.99,,,-99.99,,2013-02-10 19:22:00,
2013-02-10 14:32:00,28.0,16.0,30.26,North,357,2.0,-999.0,59,-99.99,,,-99.99,,2013-02-10 19:32:00,
2013-02-10 14:42:00,28.0,16.0,30.26,North,359,2.0,-999.0,60,-99.99,,,-99.99,,2013-02-10 19:42:00,
2013-02-10 14:52:00,28.0,16.0,30.26,North,359,2.0,-999.0,60,-99.99,,,-99.99,,2013-02-10 19:52:00,
2013-02-10 15:02:00,27.0,14.0,30.26,North,360,2.0,-999.0,58,-99.99,,,-99.99,,2013-02-10 20:02:00,
2013-02-10 15:22:00,28.0,16.0,30.27,North,354,0.0,-999.0,60,-99.99,,,-99.99,,2013-02-10 20:22:00,
2013-02-10 15:32:00,28.0,15.0,30.27,WNW,302,0.0,-999.0,58,-99.99,,,-99.99,,2013-02-10 20:32:00,
2013-02-10 15:42:00,28.0,16.0,30.27,WNW,302,0.0,-999.0,60,-99.99,,,-99.99,,2013-02-10 20:42:00,
2013-02-10 15:52:00,28.0,16.0,30.27,WNW,302,0.0,-999.0,60,-99.99,,,-99.99,,2013-02-10 20:52:00,
2013-02-10 16:02:00,27.0,15.0,30.28,WNW,302,0.0,-999.0,61,-99.99,,,-99.99,,2013-02-10 21:02:00,
2013-02-10 16:11:00,27.0,15.0,30.28,WNW,302,0.0,-999.0,61,-99.99,,,-99.99,,2013-02-10 21:11:00,
2013-02-10 16:22:00,27.0,15.0,30.27,WNW,302,0.0,-999.0,61,-99.99,,,-99.99,,2013-02-10 21:22:00,
2013-02-10 16:32:00,27.0,15.0,30.27,WNW,302,0.0,-999.0,61,-99.99,,,-99.99,,2013-02-10 21:32:00,
2013-02-10 16:42:00,27.0,16.0,30.26,WNW,302,0.0,-999.0,64,-99.99,,,-99.99,,2013-02-10 21:42:00,
2013-02-10 16:52:00,27.0,16.0,30.26,WNW,302,0.0,-999.0,64,-99.99,,,-99.99,,2013-02-10 21:52:00,
2013-02-10 17:02:00,27.0,15.0,30.26,WNW,302,0.0,-999.0,61,-99.99,,,-99.99,,2013-02-10 22:02:00,
2013-02-10 17:11:00,26.0,18.0,30.26,WNW,302,0.0,-999.0,72,-99.99,,,-99.99,,2013-02-10 22:11:00,
2013-02-10 17:22:00,26.0,18.0,30.26,WNW,302,0.0,-999.0,72,-99.99,,,-99.99,,2013-02-10 22:22:00,
2013-02-10 17:32:00,26.0,18.0,30.26,WNW,302,0.0,-999.0,72,-99.99,,,-99.99,,2013-02-10 22:32:00,
2013-02-10 17:42:00,26.0,18.0,30.26,WNW,302,0.0,-999.0,72,-99.99,,,-99.99,,2013-02-10 22:42:00,
2013-02-10 17:53:00,26.0,18.0,30.26,WNW,302,0.0,-999.0,72,-99.99,,,-99.99,,2013-02-10 22:53:00,
2013-02-10 18:02:00,24.0,14.0,30.26,WNW,302,0.0,-999.0,66,-99.99,,,-99.99,,2013-02-10 23:02:00,
2013-02-10 18:11:00,24.0,14.0,30.26,WNW,302,0.0,-999.0,66,-99.99,,,-99.99,,2013-02-10 23:11:00,
2013-02-10 18:22:00,24.0,16.0,30.27,WNW,302,0.0,-999.0,70,-99.99,,,-99.99,,2013-02-10 23:22:00,
2013-02-10 18:32:00,24.0,14.0,30.27,WNW,302,0.0,-999.0,66,-99.99,,,-99.99,,2013-02-10 23:32:00,
2013-02-10 18:42:00,23.0,10.0,30.28,WNW,302,0.0,-999.0,56,-99.99,,,-99.99,,2013-02-10 23:42:00,
2013-02-10 18:52:00,23.0,10.0,30.28,WNW,302,0.0,-999.0,56,-99.99,,,-99.99,,2013-02-10 23:52:00,
2013-02-10 19:02:00,23.0,10.0,30.28,WNW,302,0.0,-999.0,56,-99.99,,,-99.99,,2013-02-11 00:02:00,
2013-02-10 19:11:00,23.0,10.0,30.28,WNW,302,0.0,-999.0,56,-99.99,,,-99.99,,2013-02-11 00:11:00,
2013-02-10 19:22:00,23.0,10.0,30.28,WNW,302,0.0,-999.0,56,-99.99,,,-99.99,,2013-02-11 00:22:00,
2013-02-10 19:32:00,23.0,10.0,30.28,WNW,302,0.0,-999.0,56,-99.99,,,-99.99,,2013-02-11 00:32:00,
2013-02-10 19:42:00,23.0,8.0,30.27,WNW,302,0.0,-999.0,52,-99.99,,,-99.99,,2013-02-11 00:42:00,
2013-02-10 19:52:00,23.0,8.0,30.27,WNW,302,0.0,-999.0,52,-99.99,,,-99.99,,2013-02-11 00:52:00,
2013-02-10 20:01:00,23.0,8.0,30.27,WNW,302,0.0,-999.0,52,-99.99,,,-99.99,,2013-02-11 01:01:00,
2013-02-10 20:11:00,23.0,8.0,30.27,WNW,302,0.0,-999.0,52,-99.99,,,-99.99,,2013-02-11 01:11:00,
2013-02-10 20:21:00,23.0,8.0,30.27,WNW,302,0.0,-999.0,52,-99.99,,,-99.99,,2013-02-11 01:21:00,
2013-02-10 20:32:00,23.0,8.0,30.26,WNW,302,0.0,-999.0,51,-99.99,,,-99.99,,2013-02-11 01:32:00,
2013-02-10 20:42:00,22.0,9.0,30.27,SSE,157,0.0,-999.0,56,-99.99,,,-99.99,,2013-02-11 01:42:00,
2013-02-10 20:52:00,22.0,9.0,30.27,SSE,157,0.0,-999.0,56,-99.99,,,-99.99,,2013-02-11 01:52:00,
2013-02-10 21:01:00,22.0,9.0,30.27,SSE,157,0.0,-999.0,56,-99.99,,,-99.99,,2013-02-11 02:01:00,
2013-02-10 21:11:00,22.0,9.0,30.27,SSE,157,0.0,-999.0,56,-99.99,,,-99.99,,2013-02-11 02:11:00,
2013-02-10 21:21:00,21.0,8.0,30.26,SSE,157,0.0,-999.0,56,-99.99,,,-99.99,,2013-02-11 02:21:00,
2013-02-10 21:32:00,21.0,8.0,30.25,SSE,157,0.0,-999.0,56,-99.99,,,-99.99,,2013-02-11 02:32:00,
2013-02-10 21:42:00,21.0,7.0,30.25,SSE,157,0.0,-999.0,55,-99.99,,,-99.99,,2013-02-11 02:42:00,
2013-02-10 21:52:00,21.0,7.0,30.25,SSE,157,0.0,-999.0,55,-99.99,,,-99.99,,2013-02-11 02:52:00,
2013-02-10 22:02:00,21.0,8.0,30.25,SSE,157,0.0,-999.0,57,-99.99,,,-99.99,,2013-02-11 03:02:00,
2013-02-10 22:11:00,20.0,7.0,30.24,SSE,157,0.0,-999.0,57,-99.99,,,-99.99,,2013-02-11 03:11:00,
2013-02-10 22:21:00,20.0,7.0,30.24,SSE,157,0.0,-999.0,57,-99.99,,,-99.99,,2013-02-11 03:21:00,
2013-02-10 22:32:00,20.0,8.0,30.24,SSE,157,0.0,-999.0,59,-99.99,,,-99.99,,2013-02-11 03:32:00,
2013-02-10 22:42:00,20.0,8.0,30.24,SSE,157,0.0,-999.0,59,-99.99,,,-99.99,,2013-02-11 03:42:00,
2013-02-10 22:52:00,20.0,8.0,30.24,SSE,157,0.0,-999.0,59,-99.99,,,-99.99,,2013-02-11 03:52:00,
2013-02-10 23:01:00,19.0,8.0,30.22,SSE,147,0.0,-999.0,62,-99.99,,,-99.99,,2013-02-11 04:01:00,
2013-02-10 23:11:00,19.0,8.0,30.22,SSE,147,0.0,-999.0,62,-99.99,,,-99.99,,2013-02-11 04:11:00,
2013-02-10 23:22:00,19.0,9.0,30.22,SSE,164,0.0,-999.0,63,-99.99,,,-99.99,,2013-02-11 04:22:00,
2013-02-10 23:32:00,19.0,9.0,30.24,SSE,157,0.0,-999.0,63,-99.99,,,-99.99,,2013-02-11 04:32:00,
2013-02-10 23:42:00,19.0,9.0,30.24,SSE,155,0.0,-999.0,63,-99.99,,,-99.99,,2013-02-11 04:42:00,
2013-02-10 23:52:00,19.0,9.0,30.24,SSE,155,0.0,-999.0,63,-99.99,,,-99.99,,2013-02-11 04:52:00,